createdAt,value
2023-05-10T00:03:16.684Z,82.30
2023-05-10T00:06:58.522Z,82.30
2023-05-10T00:10:41.398Z,82.30
2023-05-10T00:14:23.154Z,82.40
2023-05-10T00:18:05.086Z,82.50
2023-05-10T00:21:47.013Z,82.50
2023-05-10T00:25:28.851Z,82.50
2023-05-10T00:29:10.781Z,82.60
2023-05-10T00:32:52.941Z,82.70
2023-05-10T00:36:34.880Z,82.80
2023-05-10T00:40:17.100Z,82.80
2023-05-10T00:43:59.678Z,82.80
2023-05-10T00:47:41.937Z,83.00
2023-05-10T00:51:23.956Z,82.90
2023-05-10T00:55:07.098Z,83.00
2023-05-10T00:58:49.698Z,83.00
2023-05-10T01:02:31.617Z,83.10
2023-05-10T01:06:13.841Z,83.10
2023-05-10T01:09:55.895Z,83.10
2023-05-10T01:13:40.565Z,83.00
2023-05-10T01:17:23.409Z,83.10
2023-05-10T01:21:33.096Z,83.10
2023-05-10T01:25:53.541Z,83.30
2023-05-10T01:30:23.912Z,83.30
2023-05-10T01:34:17.224Z,83.50
2023-05-10T01:38:15.237Z,83.00
2023-05-10T01:42:04.511Z,83.10
2023-05-10T01:46:01.143Z,83.00
2023-05-10T01:49:51.321Z,83.00
2023-05-10T01:53:36.023Z,83.10
2023-05-10T01:57:20.192Z,83.10
2023-05-10T02:01:05.498Z,83.00
2023-05-10T02:04:48.382Z,83.00
2023-05-10T02:08:31.284Z,83.10
2023-05-10T02:12:15.082Z,83.10
2023-05-10T02:15:58.683Z,83.00
2023-05-10T02:19:42.889Z,83.00
2023-05-10T02:23:26.086Z,83.00
2023-05-10T02:27:09.571Z,83.00
2023-05-10T02:30:52.487Z,83.00
2023-05-10T02:34:34.660Z,82.90
2023-05-10T02:38:18.149Z,83.00
2023-05-10T02:42:01.715Z,83.00
2023-05-10T02:45:45.323Z,83.00
2023-05-10T02:49:27.201Z,83.00
2023-05-10T02:53:15.912Z,82.90
2023-05-10T02:57:04.892Z,83.10
2023-05-10T03:00:47.473Z,83.10
2023-05-10T03:04:29.261Z,82.90
2023-05-10T03:08:11.183Z,83.00
2023-05-10T03:12:08.724Z,83.00
2023-05-10T03:15:53.463Z,83.00
2023-05-10T03:19:46.623Z,83.00
2023-05-10T03:23:37.143Z,83.20
2023-05-10T03:27:19.781Z,83.00
2023-05-10T03:31:02.371Z,83.00
2023-05-10T03:34:44.518Z,83.10
2023-05-10T03:38:27.344Z,83.10
2023-05-10T03:42:12.825Z,83.10
2023-05-10T03:45:54.826Z,83.10
2023-05-10T03:49:36.588Z,83.30
2023-05-10T03:53:18.318Z,83.10
2023-05-10T03:57:01.884Z,83.20
2023-05-10T04:00:46.148Z,83.20
2023-05-10T04:04:28.023Z,83.40
2023-05-10T04:08:09.912Z,83.30
2023-05-10T04:11:52.126Z,83.20
2023-05-10T04:15:33.864Z,83.10
2023-05-10T04:19:15.644Z,83.00
2023-05-10T04:22:57.470Z,83.00
2023-05-10T04:26:39.201Z,82.90
2023-05-10T04:30:21.058Z,83.00
2023-05-10T04:34:02.896Z,82.90
2023-05-10T04:37:44.689Z,83.00
2023-05-10T04:41:26.901Z,82.90
2023-05-10T04:45:10.431Z,83.00
2023-05-10T04:48:52.118Z,83.00
2023-05-10T04:52:33.968Z,83.00
2023-05-10T04:56:15.804Z,83.00
2023-05-10T04:59:57.589Z,83.00
2023-05-10T05:03:39.385Z,83.10
2023-05-10T05:07:21.161Z,83.00
2023-05-10T05:11:03.012Z,83.00
2023-05-10T05:14:44.746Z,83.00
2023-05-10T05:18:26.457Z,83.00
2023-05-10T05:22:09.255Z,83.00
2023-05-10T05:25:52.459Z,82.80
2023-05-10T05:29:34.509Z,82.70
2023-05-10T05:33:16.492Z,82.80
2023-05-10T05:36:58.215Z,82.80
2023-05-10T05:40:39.924Z,82.70
2023-05-10T05:44:21.637Z,82.70
2023-05-10T05:48:03.639Z,82.70
2023-05-10T05:51:46.192Z,82.60
2023-05-10T05:55:28.030Z,82.70
2023-05-10T05:59:09.766Z,82.80
2023-05-10T06:02:51.606Z,82.70
2023-05-10T06:06:33.419Z,82.60
2023-05-10T06:10:15.398Z,82.50
2023-05-10T06:13:57.273Z,82.30
2023-05-10T06:17:40.014Z,82.20
2023-05-10T06:21:22.029Z,82.10
2023-05-10T06:25:03.937Z,82.10
2023-05-10T06:28:45.690Z,81.90
2023-05-10T06:32:27.443Z,81.80
2023-05-10T06:36:09.257Z,81.80
2023-05-10T06:39:51.017Z,81.80
2023-05-10T06:43:32.733Z,81.80
2023-05-10T06:47:14.469Z,81.70
2023-05-10T06:50:56.185Z,81.60
2023-05-10T06:54:37.929Z,81.60
2023-05-10T06:58:19.694Z,81.60
2023-05-10T07:02:01.491Z,81.60
2023-05-10T07:05:43.460Z,81.60
2023-05-10T07:09:25.465Z,81.50
2023-05-10T07:13:07.615Z,81.50
2023-05-10T07:16:49.471Z,81.40
2023-05-10T07:20:31.199Z,81.30
2023-05-10T07:24:12.962Z,81.40
2023-05-10T07:27:54.692Z,81.40
2023-05-10T07:31:36.644Z,81.20
2023-05-10T07:35:18.594Z,81.10
2023-05-10T07:39:00.531Z,81.00
2023-05-10T07:42:42.267Z,80.80
2023-05-10T07:46:24.079Z,80.70
2023-05-10T07:50:06.676Z,80.30
2023-05-10T07:53:48.430Z,79.90
2023-05-10T07:57:30.312Z,79.40
2023-05-10T08:01:12.058Z,79.40
2023-05-10T08:04:53.921Z,79.30
2023-05-10T08:08:35.657Z,79.00
2023-05-10T08:12:17.478Z,79.50
2023-05-10T08:15:59.419Z,79.80
2023-05-10T08:19:41.180Z,80.00
2023-05-10T08:23:23.127Z,80.00
2023-05-10T08:27:08.432Z,79.90
2023-05-10T08:30:51.587Z,79.80
2023-05-10T08:34:33.779Z,79.70
2023-05-10T08:38:15.758Z,79.50
2023-05-10T08:42:02.472Z,79.40
2023-05-10T08:45:48.564Z,79.40
2023-05-10T08:49:32.711Z,79.30
2023-05-10T08:53:16.045Z,79.20
2023-05-10T08:56:57.919Z,79.40
2023-05-10T09:00:39.809Z,79.70
2023-05-10T09:04:22.522Z,79.70
2023-05-10T09:08:04.531Z,79.60
2023-05-10T09:11:47.349Z,79.60
2023-05-10T09:15:29.104Z,79.40
2023-05-10T09:19:11.418Z,79.30
2023-05-10T09:22:53.410Z,79.00
2023-05-10T09:26:36.694Z,79.00
2023-05-10T09:30:25.327Z,78.70
2023-05-10T09:34:07.319Z,78.20
2023-05-10T09:37:51.544Z,78.00
2023-05-10T09:41:34.445Z,77.70
2023-05-10T09:45:16.499Z,76.90
2023-05-10T09:49:00.194Z,76.10
2023-05-10T09:53:02.365Z,76.40
2023-05-10T09:56:44.269Z,74.70
2023-05-10T10:00:27.187Z,76.10
2023-05-10T10:04:10.668Z,75.60
2023-05-10T10:07:53.030Z,75.10
2023-05-10T10:11:39.527Z,74.50
2023-05-10T10:15:25.159Z,74.30
2023-05-10T10:19:07.781Z,73.80
2023-05-10T10:22:50.238Z,73.60
2023-05-10T10:26:34.326Z,73.10
2023-05-10T10:30:36.032Z,73.20
2023-05-10T10:34:29.059Z,71.60
2023-05-10T10:38:10.892Z,72.00
2023-05-10T10:41:57.677Z,72.70
2023-05-10T10:45:42.195Z,72.10
2023-05-10T10:49:24.142Z,72.10
2023-05-10T10:53:12.131Z,72.10
2023-05-10T10:57:17.400Z,71.80
2023-05-10T11:01:19.363Z,69.90
2023-05-10T11:05:01.892Z,68.90
2023-05-10T11:08:44.933Z,70.70
2023-05-10T11:12:26.667Z,70.60
2023-05-10T11:16:27.735Z,70.10
2023-05-10T11:20:11.011Z,68.20
2023-05-10T11:23:58.355Z,68.20
2023-05-10T11:27:41.058Z,68.50
2023-05-10T11:31:24.162Z,68.50
2023-05-10T11:35:10.049Z,68.60
2023-05-10T11:38:51.846Z,67.70
2023-05-10T11:42:34.580Z,68.10
2023-05-10T11:46:17.884Z,67.80
2023-05-10T11:49:59.913Z,67.90
2023-05-10T11:53:41.724Z,68.00
2023-05-10T11:57:29.501Z,67.50
2023-05-10T12:01:11.631Z,66.90
2023-05-10T12:04:53.715Z,63.00
2023-05-10T12:08:35.702Z,65.90
2023-05-10T12:12:17.977Z,66.20
2023-05-10T12:16:00.325Z,66.10
2023-05-10T12:19:42.454Z,66.00
2023-05-10T12:23:24.222Z,65.90
2023-05-10T12:27:09.172Z,65.00
2023-05-10T12:30:55.100Z,64.80
2023-05-10T12:34:38.156Z,63.60
2023-05-10T12:38:27.369Z,64.00
2023-05-10T12:42:09.564Z,63.80
2023-05-10T12:45:51.418Z,63.10
2023-05-10T12:49:33.210Z,62.30
2023-05-10T12:53:18.887Z,63.50
2023-05-10T12:57:00.804Z,63.20
2023-05-10T13:00:42.528Z,62.60
2023-05-10T13:04:24.355Z,62.30
2023-05-10T13:08:06.112Z,62.10
2023-05-10T13:11:49.036Z,62.50
2023-05-10T13:15:30.812Z,62.70
2023-05-10T13:19:13.344Z,62.30
2023-05-10T13:22:55.104Z,62.10
2023-05-10T13:26:37.301Z,61.60
2023-05-10T13:30:19.328Z,61.40
2023-05-10T13:34:01.379Z,60.90
2023-05-10T13:37:43.335Z,59.30
2023-05-10T13:41:25.118Z,59.50
2023-05-10T13:45:07.313Z,58.50
2023-05-10T13:48:49.048Z,58.30
2023-05-10T13:52:30.783Z,57.80
2023-05-10T13:56:13.056Z,57.20
2023-05-10T13:59:55.981Z,57.00
2023-05-10T14:03:39.500Z,56.20
2023-05-10T14:07:21.483Z,55.40
2023-05-10T14:11:03.621Z,53.60
2023-05-10T14:14:46.299Z,53.00
2023-05-10T14:18:28.372Z,53.30
2023-05-10T14:22:10.215Z,52.30
2023-05-10T14:25:53.061Z,50.90
2023-05-10T14:29:34.875Z,50.80
2023-05-10T14:33:17.906Z,50.30
2023-05-10T14:36:59.974Z,51.20
2023-05-10T14:40:41.768Z,50.40
2023-05-10T14:44:24.678Z,48.20
2023-05-10T14:48:06.815Z,48.50
2023-05-10T14:51:48.674Z,48.40
2023-05-10T14:55:31.002Z,48.30
2023-05-10T14:59:12.793Z,47.80
2023-05-10T15:02:55.131Z,48.30
2023-05-10T15:06:37.931Z,48.00
2023-05-10T15:10:19.702Z,46.20
2023-05-10T15:14:02.733Z,44.90
2023-05-10T15:17:44.542Z,46.20
2023-05-10T15:21:26.269Z,45.70
2023-05-10T15:25:08.456Z,45.70
2023-05-10T15:28:50.201Z,46.20
2023-05-10T15:32:31.970Z,46.00
2023-05-10T15:36:13.924Z,44.70
2023-05-10T15:40:02.181Z,44.70
2023-05-10T15:43:43.947Z,44.40
2023-05-10T15:47:27.005Z,44.10
2023-05-10T15:51:08.950Z,44.40
2023-05-10T15:54:51.586Z,44.00
2023-05-10T15:58:33.561Z,43.00
2023-05-10T16:02:15.992Z,42.50
2023-05-10T16:05:57.936Z,42.60
2023-05-10T16:09:39.684Z,42.60
2023-05-10T16:13:21.401Z,42.50
2023-05-10T16:17:04.257Z,42.40
2023-05-10T16:20:46.392Z,40.70
2023-05-10T16:24:28.157Z,41.80
2023-05-10T16:28:09.923Z,41.40
2023-05-10T16:31:51.708Z,41.50
2023-05-10T16:35:33.514Z,41.90
2023-05-10T16:39:15.304Z,42.00
2023-05-10T16:42:58.275Z,41.40
2023-05-10T16:46:40.667Z,41.50
2023-05-10T16:50:22.554Z,40.80
2023-05-10T16:54:04.317Z,41.50
2023-05-10T16:57:46.298Z,41.40
2023-05-10T17:01:28.580Z,40.80
2023-05-10T17:05:10.579Z,40.50
2023-05-10T17:08:52.415Z,40.80
2023-05-10T17:12:34.207Z,41.30
2023-05-10T17:16:16.079Z,41.40
2023-05-10T17:19:58.678Z,41.20
2023-05-10T17:23:40.423Z,40.90
2023-05-10T17:27:22.164Z,40.70
2023-05-10T17:31:04.028Z,40.70
2023-05-10T17:34:45.985Z,41.10
2023-05-10T17:38:27.725Z,40.40
2023-05-10T17:42:09.432Z,40.70
2023-05-10T17:45:51.327Z,41.00
2023-05-10T17:49:33.127Z,40.70
2023-05-10T17:53:14.836Z,40.50
2023-05-10T17:56:58.072Z,40.70
2023-05-10T18:00:40.101Z,40.40
2023-05-10T18:04:21.896Z,40.20
2023-05-10T18:08:04.625Z,40.30
2023-05-10T18:11:46.410Z,40.60
2023-05-10T18:15:28.218Z,40.70
2023-05-10T18:19:10.074Z,41.00
2023-05-10T18:22:51.941Z,41.00
2023-05-10T18:26:33.769Z,41.60
2023-05-10T18:30:15.738Z,41.70
2023-05-10T18:33:57.513Z,41.80
2023-05-10T18:37:39.447Z,42.20
2023-05-10T18:41:21.416Z,42.80
2023-05-10T18:45:03.659Z,43.20
2023-05-10T18:48:45.490Z,43.40
2023-05-10T18:52:27.234Z,44.10
2023-05-10T18:56:08.944Z,44.60
2023-05-10T18:59:50.945Z,45.40
2023-05-10T19:03:32.728Z,46.60
2023-05-10T19:07:14.549Z,47.70
2023-05-10T19:10:56.400Z,48.80
2023-05-10T19:14:38.182Z,49.40
2023-05-10T19:18:21.469Z,50.30
2023-05-10T19:22:03.871Z,50.90
2023-05-10T19:25:46.796Z,51.80
2023-05-10T19:29:28.622Z,52.30
2023-05-10T19:33:10.643Z,52.60
2023-05-10T19:36:52.464Z,52.80
2023-05-10T19:40:34.286Z,53.10
2023-05-10T19:44:16.094Z,53.20
2023-05-10T19:47:58.065Z,53.80
2023-05-10T19:51:40.095Z,54.10
2023-05-10T19:55:29.992Z,54.60
2023-05-10T19:59:11.776Z,56.40
2023-05-10T20:02:54.100Z,54.90
2023-05-10T20:06:35.917Z,55.20
2023-05-10T20:10:18.187Z,56.20
2023-05-10T20:13:59.939Z,56.30
2023-05-10T20:17:41.736Z,56.80
2023-05-10T20:21:24.055Z,57.00
2023-05-10T20:25:06.567Z,57.20
2023-05-10T20:28:48.453Z,57.30
2023-05-10T20:32:30.391Z,57.80
2023-05-10T20:36:12.265Z,57.90
2023-05-10T20:39:54.693Z,58.20
2023-05-10T20:43:36.528Z,59.10
2023-05-10T20:47:18.284Z,59.50
2023-05-10T20:51:02.104Z,59.70
2023-05-10T20:54:44.482Z,59.20
2023-05-10T20:58:26.497Z,59.50
2023-05-10T21:02:08.303Z,59.90
2023-05-10T21:05:50.069Z,60.30
2023-05-10T21:09:31.820Z,60.50
2023-05-10T21:13:13.603Z,60.40
2023-05-10T21:16:55.381Z,60.50
2023-05-10T21:20:37.509Z,60.60
2023-05-10T21:24:19.299Z,61.30
2023-05-10T21:28:01.028Z,61.10
2023-05-10T21:31:42.831Z,60.90
2023-05-10T21:35:25.313Z,61.50
2023-05-10T21:39:07.467Z,62.00
2023-05-10T21:42:49.711Z,62.40
2023-05-10T21:46:32.089Z,61.30
2023-05-10T21:50:13.879Z,61.50
2023-05-10T21:53:55.784Z,62.00
2023-05-10T21:57:37.551Z,61.90
2023-05-10T22:01:19.696Z,61.60
2023-05-10T22:05:03.590Z,61.70
2023-05-10T22:08:45.329Z,62.00
2023-05-10T22:12:27.478Z,62.00
2023-05-10T22:16:09.175Z,61.90
2023-05-10T22:19:50.910Z,62.10
2023-05-10T22:23:32.611Z,62.10
2023-05-10T22:27:14.342Z,62.20
2023-05-10T22:30:56.175Z,62.20
2023-05-10T22:34:37.906Z,62.10
2023-05-10T22:38:19.838Z,62.10
2023-05-10T22:42:01.893Z,62.20
2023-05-10T22:45:43.830Z,62.10
2023-05-10T22:49:25.727Z,62.20
2023-05-10T22:53:07.490Z,62.20
2023-05-10T22:56:49.367Z,62.40
2023-05-10T23:00:31.110Z,62.40
2023-05-10T23:04:13.028Z,62.50
2023-05-10T23:07:54.896Z,62.60
2023-05-10T23:11:36.868Z,62.60
2023-05-10T23:15:18.792Z,62.70
2023-05-10T23:19:00.632Z,62.70
2023-05-10T23:22:42.495Z,62.80
2023-05-10T23:26:24.252Z,62.90
2023-05-10T23:30:06.822Z,62.90
2023-05-10T23:33:48.627Z,63.00
2023-05-10T23:37:30.828Z,63.00
2023-05-10T23:41:12.759Z,63.00
2023-05-10T23:44:54.905Z,63.10
2023-05-10T23:48:37.026Z,63.10
2023-05-10T23:52:23.079Z,63.30
2023-05-10T23:56:05.142Z,63.50
2023-05-10T23:59:46.898Z,63.60
